Time;durP1;ratioP1;P1;durP2;ratioP2;P2;SDS_P1;SDS_P2;PMS_P1;PMS_P2;Temp;Humidity;BMP_temperature;BMP_pressure;BME280_temperature;BME280_humidity;BME280_pressure;Samples;Min_cycle;Max_cycle;Signal;HPM_P1;HPM_P2
2022/01/14 00:01:12;;;;;;;2.70;2.50;;;0.50;86.70;-0.50;100208.00;;;;5098624;28;20222;-73
2022/01/14 00:03:40;;;;;;;1.87;1.77;;;0.50;86.10;-0.50;100202.00;;;;5098347;28;20683;-74
2022/01/14 00:06:10;;;;;;;4.20;3.40;;;0.50;86.00;-0.60;100207.00;;;;5116380;28;20289;-76
2022/01/14 00:08:37;;;;;;;4.80;2.50;;;0.50;86.10;-0.70;100197.00;;;;5116371;28;20202;-73
2022/01/14 00:11:14;;;;;;;2.33;2.23;;;0.40;86.20;-0.60;100204.00;;;;5115354;28;20284;-74
2022/01/14 00:14:08;;;;;;;2.70;2.50;;;0.40;86.60;-0.80;100203.00;;;;5116343;28;20200;-74
2022/01/14 00:16:35;;;;;;;1.77;1.70;;;0.40;86.80;-0.50;100164.00;;;;5116189;28;20217;-73
2022/01/14 00:19:02;;;;;;;2.47;2.27;;;0.40;87.20;-0.50;100207.00;;;;5116250;28;20251;-76
2022/01/14 00:21:32;;;;;;;2.90;2.70;;;0.40;86.90;-0.80;100204.00;;;;5116038;28;20224;-74
2022/01/14 00:24:07;;;;;;;2.73;2.53;;;0.30;86.50;-0.60;100208.00;;;;5098048;28;20201;-73
2022/01/14 00:32:24;;;;;;;3.73;2.67;;;0.40;87.60;-0.60;100208.00;;;;5073668;28;20258;-75
2022/01/14 00:34:50;;;;;;;2.87;2.67;;;0.30;87.60;-0.60;100205.00;;;;5114903;28;20221;-76
2022/01/14 00:37:18;;;;;;;2.43;2.23;;;0.30;87.60;-0.70;100200.00;;;;5116184;28;20198;-76
2022/01/14 00:39:47;;;;;;;5.10;2.10;;;0.30;87.80;-0.60;100195.00;;;;5115940;28;20209;-75
2022/01/14 00:42:14;;;;;;;1.00;1.00;;;0.40;88.10;-0.70;100195.00;;;;5115737;28;20596;-75
2022/01/14 00:44:43;;;;;;;1.87;1.77;;;0.40;88.10;-0.60;100185.00;;;;5115897;28;20186;-75
2022/01/14 00:47:09;;;;;;;4.23;1.53;;;0.30;88.70;-0.70;100188.00;;;;5115747;28;20538;-76
2022/01/14 00:49:36;;;;;;;5.30;2.23;;;0.40;88.70;-0.50;100188.00;;;;5097835;28;20561;-75
2022/01/14 00:52:03;;;;;;;5.17;2.23;;;0.40;88.60;-0.50;100191.00;;;;5115692;28;20610;-76
2022/01/14 00:54:31;;;;;;;3.50;1.97;;;0.50;88.50;-0.80;100184.00;;;;5115530;28;20231;-73
2022/01/14 00:57:15;;;;;;;3.13;2.77;;;0.30;87.90;-0.80;100182.00;;;;5097489;28;20556;-74
2022/01/14 00:59:42;;;;;;;1.40;1.30;;;0.30;87.60;-0.60;100192.00;;;;5115589;28;20210;-75
2022/01/14 01:02:10;;;;;;;3.27;2.97;;;0.30;88.00;-0.60;100194.00;;;;5115356;28;20257;-73
2022/01/14 01:04:39;;;;;;;4.50;3.87;;;0.30;87.50;-0.70;100174.00;;;;5115424;28;20460;-73
2022/01/14 01:07:08;;;;;;;4.43;3.27;;;0.30;87.60;-0.60;100189.00;;;;5097592;28;20284;-76
2022/01/14 01:09:38;;;;;;;2.77;2.67;;;0.30;87.60;-0.70;100176.00;;;;5115280;28;20317;-75
2022/01/14 01:12:10;;;;;;;3.70;2.70;;;0.30;87.60;-0.60;100178.00;;;;5115250;28;20358;-74
2022/01/14 01:14:44;;;;;;;4.00;3.70;;;0.30;88.00;-0.60;100185.00;;;;5115306;28;20201;-75
2022/01/14 01:17:12;;;;;;;2.90;2.63;;;0.30;87.70;-0.60;100183.00;;;;5115124;28;20214;-75
2022/01/14 01:19:38;;;;;;;4.90;2.50;;;0.30;87.80;-0.70;100175.00;;;;5115225;28;20209;-75
2022/01/14 01:22:05;;;;;;;4.00;3.27;;;0.30;87.80;-0.70;100181.00;;;;5115069;28;20293;-74
2022/01/14 01:24:32;;;;;;;2.63;2.43;;;0.30;88.20;-0.70;100177.00;;;;5115226;28;20266;-75
2022/01/14 01:27:04;;;;;;;2.53;2.40;;;0.30;88.30;-0.80;100179.00;;;;5097105;28;20290;-74
2022/01/14 01:29:47;;;;;;;2.20;2.00;;;0.20;88.60;-0.70;100174.00;;;;5114955;28;20249;-74
2022/01/14 01:32:14;;;;;;;1.87;1.77;;;0.30;89.30;-0.80;100181.00;;;;5114987;28;20244;-75
2022/01/14 01:34:43;;;;;;;7.53;3.70;;;0.30;89.50;-0.70;100186.00;;;;5114880;28;20198;-74
2022/01/14 01:37:10;;;;;;;1.47;1.40;;;0.30;89.40;-0.70;100148.00;;;;5114937;28;20202;-74
2022/01/14 01:39:37;;;;;;;1.77;1.67;;;0.30;89.80;-0.70;100186.00;;;;5114790;28;20186;-74
2022/01/14 01:42:09;;;;;;;1.63;1.53;;;0.30;89.80;-0.70;100185.00;;;;5114697;28;20236;-74
2022/01/14 01:44:40;;;;;;;1.77;1.67;;;0.30;89.80;-0.70;100200.00;;;;5114587;28;20216;-74
2022/01/14 01:47:07;;;;;;;2.07;1.87;;;0.30;89.90;-0.70;100185.00;;;;5114779;28;20214;-76
2022/01/14 01:49:37;;;;;;;2.17;2.07;;;0.30;90.00;-0.60;100189.00;;;;5114565;28;20257;-74
2022/01/14 01:52:07;;;;;;;2.00;1.90;;;0.30;90.40;-0.60;100152.00;;;;5114726;28;20232;-74
2022/01/14 01:54:36;;;;;;;2.10;2.00;;;0.30;89.90;-0.60;100192.00;;;;5114693;28;20194;-73
2022/01/14 01:57:03;;;;;;;3.13;2.93;;;0.40;89.80;-0.60;100195.00;;;;5114628;28;20297;-74
2022/01/14 01:59:31;;;;;;;3.10;2.90;;;0.30;89.70;-0.60;100187.00;;;;5114724;28;20572;-73
2022/01/14 02:02:00;;;;;;;2.93;2.73;;;0.30;89.80;-0.60;100166.00;;;;5114417;28;20362;-73
2022/01/14 02:04:28;;;;;;;11.00;2.77;;;0.30;89.80;-0.70;100175.00;;;;5114639;28;20208;-75
2022/01/14 02:06:57;;;;;;;3.10;2.90;;;0.30;89.70;-0.70;100167.00;;;;5114506;28;20263;-75
2022/01/14 02:09:27;;;;;;;5.40;2.57;;;0.30;89.50;-0.60;100181.00;;;;5114456;28;20293;-74
2022/01/14 02:11:55;;;;;;;3.60;2.77;;;0.30;89.50;-0.60;100182.00;;;;5096506;28;20202;-75
2022/01/14 02:14:40;;;;;;;2.60;2.40;;;0.30;88.90;-0.90;100176.00;;;;5114319;28;20281;-74
2022/01/14 02:22:09;;;;;;;2.03;1.93;;;0.20;88.30;-0.90;100178.00;;;;5096383;28;20774;-74
2022/01/14 02:22:47;;;;;;;2.47;2.27;;;0.20;88.20;-0.80;100164.00;;;;5096245;28;20322;-74
2022/01/14 02:25:16;;;;;;;5.07;2.37;;;0.20;88.30;-0.80;100163.00;;;;5114368;28;20190;-74
2022/01/14 02:27:43;;;;;;;3.47;3.17;;;0.20;87.90;-0.80;100165.00;;;;5096474;28;20231;-74
2022/01/14 02:30:12;;;;;;;1.90;1.80;;;0.10;87.70;-0.90;100159.00;;;;5114296;28;20190;-75
2022/01/14 02:32:39;;;;;;;3.27;3.07;;;0.10;87.70;-1.00;100163.00;;;;5096273;28;20584;-74
2022/01/14 02:35:09;;;;;;;3.37;3.07;;;0.10;87.70;-1.00;100141.00;;;;5114059;28;20659;-74
2022/01/14 02:37:38;;;;;;;2.70;2.50;;;0.00;87.50;-1.20;100141.00;;;;5114105;28;20213;-74
2022/01/14 02:40:06;;;;;;;2.80;2.60;;;-0.10;87.20;-1.00;100148.00;;;;5114194;28;20233;-74
2022/01/14 02:42:32;;;;;;;2.07;1.97;;;0.00;87.70;-1.00;100142.00;;;;5113984;28;20249;-74
2022/01/14 02:45:03;;;;;;;9.00;2.70;;;0.00;88.30;-1.00;100093.00;;;;5114033;28;20190;-74
2022/01/14 02:47:33;;;;;;;1.80;1.37;;;0.00;87.40;-0.90;100139.00;;;;5114084;28;20613;-74
2022/01/14 02:50:06;;;;;;;2.57;2.33;;;0.00;87.70;-1.00;100111.00;;;;5113803;28;20232;-74
2022/01/14 02:52:42;;;;;;;2.33;2.17;;;0.00;87.30;-1.00;100136.00;;;;5095857;28;20198;-74
2022/01/14 02:55:16;;;;;;;2.53;1.87;;;0.00;87.90;-1.10;100123.00;;;;5113764;28;20205;-74
2022/01/14 02:57:49;;;;;;;2.47;1.93;;;0.00;88.00;-1.00;100124.00;;;;5115638;28;20198;-75
2022/01/14 03:00:19;;;;;;;3.27;3.07;;;0.00;88.40;-1.00;100117.00;;;;5118265;28;20276;-75
2022/01/14 03:02:50;;;;;;;3.43;2.00;;;0.00;88.30;-0.90;100113.00;;;;5119754;28;20236;-75
2022/01/14 03:05:19;;;;;;;1.90;1.80;;;0.00;88.20;-1.00;100116.00;;;;5117814;28;20201;-75
2022/01/14 03:07:48;;;;;;;3.50;2.13;;;0.00;88.00;-1.10;100107.00;;;;5099394;28;20288;-74
2022/01/14 03:10:17;;;;;;;4.63;2.70;;;0.00;88.40;-1.00;100115.00;;;;5117423;28;20194;-74
2022/01/14 03:12:47;;;;;;;2.97;2.67;;;0.00;89.30;-1.00;100110.00;;;;5099308;28;20233;-74
2022/01/14 03:15:15;;;;;;;2.70;2.50;;;0.10;89.10;-0.90;100118.00;;;;5099119;28;20217;-74
2022/01/14 03:17:42;;;;;;;1.93;1.83;;;0.00;89.40;-0.90;100114.00;;;;5117215;28;20191;-75
2022/01/14 03:20:25;;;;;;;2.43;2.23;;;0.10;89.50;-0.90;100110.00;;;;5117155;28;20232;-75
2022/01/14 03:23:03;;;;;;;2.63;2.43;;;0.10;89.20;-0.90;100098.00;;;;5117830;28;20218;-75
2022/01/14 03:25:47;;;;;;;2.20;2.10;;;0.10;89.50;-0.80;100104.00;;;;5117008;28;20237;-74
2022/01/14 03:28:20;;;;;;;5.03;4.40;;;0.20;89.20;-0.80;100091.00;;;;5117457;28;20644;-75
2022/01/14 03:30:52;;;;;;;2.13;2.03;;;0.20;89.10;-0.70;100103.00;;;;5117897;28;20634;-76
2022/01/14 03:33:19;;;;;;;5.03;3.73;;;0.30;89.40;-0.80;100091.00;;;;5117148;28;20202;-74
2022/01/14 03:35:47;;;;;;;2.83;2.53;;;0.20;89.10;-0.90;100101.00;;;;5116758;28;20214;-75
2022/01/14 03:38:14;;;;;;;2.60;2.43;;;0.20;89.30;-0.80;100098.00;;;;5121676;28;20228;-76
2022/01/14 03:40:41;;;;;;;3.07;2.87;;;0.20;90.60;-0.90;100096.00;;;;5126064;28;20217;-74
2022/01/14 03:43:07;;;;;;;2.10;2.03;;;0.10;89.50;-0.90;100101.00;;;;5117310;28;20308;-74
2022/01/14 03:45:34;;;;;;;1.50;1.43;;;0.10;89.80;-0.80;100098.00;;;;5116826;28;20201;-74
2022/01/14 03:48:01;;;;;;;1.57;1.47;;;0.20;89.90;-0.80;100093.00;;;;5116642;28;20250;-74
2022/01/14 03:50:28;;;;;;;3.23;2.33;;;0.20;89.90;-0.70;100083.00;;;;5116642;28;20194;-74
2022/01/14 03:52:54;;;;;;;2.37;2.27;;;0.20;90.00;-0.70;100088.00;;;;5098664;28;20209;-74
2022/01/14 03:55:22;;;;;;;3.80;3.40;;;0.30;89.70;-0.80;100097.00;;;;5098568;28;20279;-74
2022/01/14 03:57:49;;;;;;;1.93;1.83;;;0.20;89.10;-0.80;100092.00;;;;5116669;28;20276;-76
2022/01/14 04:00:19;;;;;;;1.90;1.80;;;0.20;89.00;-0.80;100085.00;;;;5116365;28;20293;-73
2022/01/14 04:02:46;;;;;;;4.07;2.67;;;0.20;89.10;-0.80;100088.00;;;;5116409;28;20301;-74
2022/01/14 04:05:14;;;;;;;2.17;2.07;;;0.20;89.40;-0.80;100090.00;;;;5098773;28;20312;-74
2022/01/14 04:07:42;;;;;;;2.60;2.40;;;0.20;89.30;-0.70;100085.00;;;;5116258;28;20304;-74
2022/01/14 04:10:12;;;;;;;1.80;1.70;;;0.20;89.30;-0.80;100092.00;;;;5116456;28;20649;-74
2022/01/14 04:12:47;;;;;;;4.10;2.83;;;0.20;89.00;-0.80;100077.00;;;;5116430;28;20189;-74
2022/01/14 04:18:00;;;;;;;4.77;3.00;;;0.10;89.10;-0.90;100081.00;;;;5116223;28;20285;-74
2022/01/14 04:20:30;;;;;;;2.53;2.43;;;0.10;89.40;-0.90;100077.00;;;;5116081;28;20210;-74
2022/01/14 04:22:57;;;;;;;2.57;2.40;;;0.10;89.20;-0.90;100070.00;;;;5098259;28;20222;-74
2022/01/14 04:25:24;;;;;;;2.93;2.07;;;0.10;89.60;-1.00;100070.00;;;;5098207;28;20204;-74
2022/01/14 04:27:51;;;;;;;3.50;2.00;;;0.10;90.30;-0.90;100059.00;;;;5097974;28;20236;-74
2022/01/14 04:30:19;;;;;;;2.70;2.50;;;0.10;89.60;-0.90;100061.00;;;;5116012;28;20200;-74
2022/01/14 04:32:46;;;;;;;1.90;1.80;;;0.10;89.90;-1.00;100056.00;;;;5115901;28;20209;-74
2022/01/14 04:35:12;;;;;;;3.10;2.53;;;0.10;89.50;-0.90;100060.00;;;;5115864;28;20305;-74
2022/01/14 04:37:39;;;;;;;2.13;2.03;;;0.10;90.20;-0.80;100047.00;;;;5115919;28;20195;-74
2022/01/14 04:40:08;;;;;;;2.30;2.20;;;0.10;89.80;-0.80;100050.00;;;;5115843;28;20190;-74
2022/01/14 04:42:40;;;;;;;2.37;1.93;;;0.20;89.70;-0.80;100051.00;;;;5097776;28;20233;-75
2022/01/14 04:45:10;;;;;;;2.73;2.50;;;0.10;89.60;-0.80;100019.00;;;;5115651;28;20193;-74
2022/01/14 04:47:44;;;;;;;5.20;4.80;;;0.20;89.30;-0.80;100051.00;;;;5115487;28;20290;-74
2022/01/14 04:50:12;;;;;;;5.20;3.00;;;0.20;89.00;-0.90;100052.00;;;;5097740;28;20202;-74
2022/01/14 04:52:40;;;;;;;3.00;2.13;;;0.10;89.10;-0.80;100055.00;;;;5115490;28;20324;-74
2022/01/14 04:55:12;;;;;;;3.00;2.53;;;0.20;89.00;-0.90;100055.00;;;;5115266;28;20225;-74
2022/01/14 04:57:41;;;;;;;2.60;2.40;;;0.10;88.80;-0.90;100058.00;;;;5115333;28;20633;-74
2022/01/14 05:00:13;;;;;;;1.90;1.80;;;0.10;88.80;-0.80;100051.00;;;;5097454;28;20209;-74
2022/01/14 05:02:40;;;;;;;3.80;2.77;;;0.10;89.00;-0.90;100055.00;;;;5115247;28;20309;-73
2022/01/14 05:05:09;;;;;;;3.03;2.77;;;0.10;88.80;-0.90;100048.00;;;;5115348;28;20280;-74
2022/01/14 05:07:40;;;;;;;2.37;2.27;;;0.10;88.80;-0.90;100050.00;;;;5097364;28;20209;-74
2022/01/14 05:10:18;;;;;;;2.43;2.27;;;0.00;88.60;-1.00;100060.00;;;;5097440;28;20239;-74
2022/01/14 05:12:45;;;;;;;2.53;2.40;;;0.10;88.70;-1.10;100033.00;;;;5115461;28;20194;-74
2022/01/14 05:15:15;;;;;;;3.20;3.00;;;0.00;88.90;-1.10;100056.00;;;;5115132;28;20221;-74
2022/01/14 05:17:41;;;;;;;3.23;2.93;;;-0.10;89.00;-1.10;100055.00;;;;5115125;28;20639;-74
2022/01/14 05:20:10;;;;;;;1.93;1.83;;;-0.10;89.20;-1.10;100057.00;;;;5113433;28;20206;-74
2022/01/14 05:22:36;;;;;;;3.37;3.17;;;-0.10;89.30;-1.10;100059.00;;;;5114986;28;20260;-74
2022/01/14 05:25:04;;;;;;;2.10;2.00;;;-0.10;89.40;-1.10;100056.00;;;;5115079;28;20278;-74
2022/01/14 05:27:30;;;;;;;2.50;2.33;;;-0.10;89.50;-1.10;100049.00;;;;5114863;28;20254;-73
2022/01/14 05:29:59;;;;;;;2.37;2.07;;;-0.10;89.40;-1.10;100062.00;;;;5115175;28;20201;-74
2022/01/14 05:32:28;;;;;;;2.73;2.57;;;-0.10;89.40;-1.00;100049.00;;;;5114837;28;20556;-74
2022/01/14 05:34:55;;;;;;;3.03;2.70;;;-0.10;89.50;-1.00;100053.00;;;;5097281;28;20617;-73
2022/01/14 05:37:24;;;;;;;4.93;3.90;;;-0.10;90.10;-1.10;100056.00;;;;5096871;28;20233;-74
2022/01/14 05:39:50;;;;;;;3.77;3.47;;;-0.10;89.30;-1.10;100060.00;;;;5114779;28;20228;-74
2022/01/14 05:42:17;;;;;;;2.97;2.77;;;-0.10;89.40;-1.20;100059.00;;;;5114770;28;20320;-74
2022/01/14 05:44:44;;;;;;;4.53;2.70;;;-0.10;89.30;-1.20;100061.00;;;;5114829;28;20233;-74
2022/01/14 05:47:10;;;;;;;3.00;2.80;;;-0.20;89.50;-1.20;100058.00;;;;5114787;28;20229;-74
2022/01/14 05:49:37;;;;;;;4.73;2.00;;;-0.20;89.10;-1.40;100059.00;;;;5114746;28;20205;-74
2022/01/14 05:52:07;;;;;;;3.87;2.63;;;-0.30;89.50;-1.30;100054.00;;;;5114758;28;20209;-75
2022/01/14 05:54:36;;;;;;;2.20;2.10;;;-0.40;88.90;-1.40;100058.00;;;;5096662;28;20230;-75
2022/01/14 05:57:02;;;;;;;5.10;2.90;;;-0.40;88.50;-1.30;100053.00;;;;5114566;28;20532;-74
2022/01/14 05:59:29;;;;;;;3.07;1.87;;;-0.40;88.90;-1.50;100053.00;;;;5096719;28;20542;-75
2022/01/14 06:01:55;;;;;;;2.20;2.10;;;-0.40;87.90;-1.50;100050.00;;;;5114474;28;20313;-74
2022/01/14 06:04:22;;;;;;;6.93;2.83;;;-0.50;88.50;-1.70;100045.00;;;;5114519;28;20285;-74
2022/01/14 06:06:49;;;;;;;2.63;2.53;;;-0.60;88.20;-1.50;100043.00;;;;5114473;28;20250;-74
2022/01/14 06:09:16;;;;;;;3.00;2.07;;;-0.50;89.40;-1.40;100038.00;;;;5114310;28;20289;-74
2022/01/14 06:11:42;;;;;;;3.00;2.73;;;-0.50;89.00;-1.40;100036.00;;;;5114201;28;20282;-74
2022/01/14 06:14:09;;;;;;;2.83;2.63;;;-0.40;89.00;-1.40;100033.00;;;;5114301;28;20688;-75
2022/01/14 06:16:36;;;;;;;3.30;2.57;;;-0.50;88.60;-1.40;100035.00;;;;5114307;28;20527;-73
2022/01/14 06:19:03;;;;;;;2.30;2.20;;;-0.40;88.50;-1.50;100023.00;;;;5114233;28;20254;-74
2022/01/14 06:21:31;;;;;;;2.73;2.53;;;-0.50;88.20;-1.50;100029.00;;;;5096151;28;20253;-74
2022/01/14 06:23:58;;;;;;;5.27;2.90;;;-0.50;88.50;-1.50;100017.00;;;;5114260;28;20198;-74
2022/01/14 06:26:25;;;;;;;2.20;2.07;;;-0.50;88.60;-1.50;100033.00;;;;5114304;28;20194;-74
2022/01/14 06:28:52;;;;;;;3.90;3.03;;;-0.50;88.90;-1.50;100016.00;;;;5114291;28;20647;-74
2022/01/14 06:31:19;;;;;;;4.87;4.17;;;-0.50;88.60;-1.50;100016.00;;;;5114170;28;20210;-75
2022/01/14 06:33:46;;;;;;;3.03;2.83;;;-0.50;89.00;-1.40;100015.00;;;;5117289;28;20629;-75
2022/01/14 06:36:13;;;;;;;3.27;3.03;;;-0.40;88.90;-1.40;100015.00;;;;5117706;28;20197;-74
2022/01/14 06:38:39;;;;;;;2.17;2.07;;;-0.40;88.80;-1.30;100022.00;;;;5117813;28;20523;-74
2022/01/14 06:41:07;;;;;;;1.47;1.47;;;-0.40;88.80;-1.30;100013.00;;;;5117603;28;20222;-74
2022/01/14 06:43:33;;;;;;;5.40;3.90;;;-0.40;88.60;-1.30;100017.00;;;;5117689;28;20623;-74
2022/01/14 06:46:00;;;;;;;2.27;2.13;;;-0.40;88.30;-1.30;100023.00;;;;5117689;28;20346;-74
2022/01/14 06:48:27;;;;;;;1.90;1.80;;;-0.30;88.20;-1.40;100031.00;;;;5117455;28;20232;-74
2022/01/14 06:50:54;;;;;;;3.67;2.30;;;-0.40;87.50;-1.40;100025.00;;;;5117488;28;20644;-74
2022/01/14 06:53:21;;;;;;;4.73;2.80;;;-0.40;87.80;-1.40;100036.00;;;;5117660;28;20253;-75
2022/01/14 06:55:48;;;;;;;6.83;1.93;;;-0.40;88.00;-1.30;100043.00;;;;5117607;28;20613;-74
2022/01/14 06:58:15;;;;;;;2.63;2.43;;;-0.40;88.10;-1.30;100022.00;;;;5117405;28;20272;-74
2022/01/14 07:00:41;;;;;;;6.57;2.40;;;-0.40;88.80;-1.30;100042.00;;;;5099194;28;20206;-75
2022/01/14 07:03:08;;;;;;;2.07;1.97;;;-0.40;87.60;-1.30;100058.00;;;;5099209;28;20262;-75
2022/01/14 07:05:35;;;;;;;3.37;3.07;;;-0.40;87.70;-1.30;100062.00;;;;5117294;28;20294;-77
2022/01/14 07:08:04;;;;;;;2.83;2.63;;;-0.40;87.60;-1.40;100061.00;;;;5099038;28;20632;-77
2022/01/14 07:10:35;;;;;;;2.93;2.73;;;-0.40;87.40;-1.40;100073.00;;;;5117112;28;20202;-76
2022/01/14 07:13:03;;;;;;;2.30;2.10;;;-0.40;87.30;-1.40;100070.00;;;;5099077;28;20524;-76
2022/01/14 07:15:30;;;;;;;3.40;1.83;;;-0.40;87.60;-1.40;100081.00;;;;5116845;28;20232;-76
2022/01/14 07:17:57;;;;;;;2.47;2.27;;;-0.40;87.80;-1.50;100081.00;;;;5117069;28;20267;-75
2022/01/14 07:20:23;;;;;;;2.67;2.30;;;-0.50;87.60;-1.40;100086.00;;;;5099270;28;20555;-75
2022/01/14 07:22:50;;;;;;;1.87;1.77;;;-0.40;88.00;-1.50;100088.00;;;;5117272;28;20225;-75
2022/01/14 07:25:17;;;;;;;2.97;2.00;;;-0.50;88.00;-1.40;100053.00;;;;5123100;28;20240;-76
2022/01/14 07:27:43;;;;;;;2.73;2.57;;;-0.50;88.60;-1.50;100088.00;;;;5117857;28;20300;-82
2022/01/14 07:30:12;;;;;;;1.90;1.80;;;-0.40;88.40;-1.50;100086.00;;;;5118210;28;20217;-79
2022/01/14 07:32:39;;;;;;;2.13;2.03;;;-0.40;88.30;-1.40;100099.00;;;;5117157;28;20209;-79
2022/01/14 07:35:07;;;;;;;3.53;3.23;;;-0.40;88.60;-1.40;100100.00;;;;5122078;28;20277;-82
2022/01/14 07:37:34;;;;;;;1.47;1.47;;;-0.40;89.00;-1.40;100108.00;;;;5102996;28;20288;-74
2022/01/14 07:40:00;;;;;;;1.33;1.33;;;-0.40;88.60;-1.40;100099.00;;;;5119502;28;20699;-75
2022/01/14 07:42:27;;;;;;;10.57;2.43;;;-0.40;88.90;-1.30;100110.00;;;;5098955;28;20221;-75
2022/01/14 07:44:54;;;;;;;3.30;3.00;;;-0.40;89.30;-1.40;100090.00;;;;5116552;28;20702;-75
2022/01/14 07:47:20;;;;;;;3.37;2.43;;;-0.40;88.80;-1.50;100108.00;;;;5098504;28;20281;-75
2022/01/14 07:49:48;;;;;;;1.93;1.83;;;-0.40;89.50;-1.50;100100.00;;;;5116624;28;20217;-75
2022/01/14 07:52:16;;;;;;;2.00;1.87;;;-0.40;88.70;-1.40;100105.00;;;;5098658;28;20228;-75
2022/01/14 07:54:43;;;;;;;2.83;2.63;;;-0.40;88.90;-1.30;100097.00;;;;5116542;28;20217;-75
2022/01/14 07:57:09;;;;;;;2.13;1.47;;;-0.30;89.10;-1.30;100094.00;;;;5116292;28;20216;-75
2022/01/14 07:59:39;;;;;;;1.73;1.63;;;-0.30;88.30;-1.40;100094.00;;;;5116185;28;20213;-76
2022/01/14 08:02:06;;;;;;;2.20;1.93;;;-0.30;89.00;-1.40;100048.00;;;;5116251;28;20317;-75
2022/01/14 08:04:35;;;;;;;6.13;2.13;;;-0.30;88.00;-1.30;100087.00;;;;5116292;28;20667;-75
2022/01/14 08:07:08;;;;;;;6.10;2.40;;;-0.30;88.10;-1.40;100087.00;;;;5116213;28;20237;-75
2022/01/14 08:09:37;;;;;;;4.13;3.70;;;-0.30;87.60;-1.40;100088.00;;;;5116235;28;20190;-75
2022/01/14 08:12:06;;;;;;;5.67;2.90;;;-0.30;87.90;-1.30;100087.00;;;;5115895;28;20251;-73
2022/01/14 08:14:32;;;;;;;3.87;3.57;;;-0.30;87.70;-1.20;100095.00;;;;5116191;28;20536;-75
2022/01/14 08:16:59;;;;;;;4.57;4.10;;;-0.30;88.20;-1.10;100089.00;;;;5116068;28;20716;-75
2022/01/14 08:19:25;;;;;;;3.53;3.30;;;-0.20;88.40;-1.00;100095.00;;;;5116110;28;20277;-74
2022/01/14 08:21:52;;;;;;;2.17;1.97;;;-0.10;88.80;-1.00;100090.00;;;;5116058;28;20248;-75
2022/01/14 08:24:19;;;;;;;1.63;1.50;;;0.00;87.60;-1.00;100090.00;;;;5097987;28;20214;-76
2022/01/14 08:26:46;;;;;;;2.50;2.30;;;0.00;87.30;-0.90;100092.00;;;;5115894;28;20190;-75
2022/01/14 08:29:12;;;;;;;2.17;1.97;;;0.00;87.40;-1.10;100092.00;;;;5115785;28;20224;-75
2022/01/14 08:31:39;;;;;;;3.07;2.87;;;0.00;87.10;-1.00;100083.00;;;;5116187;28;20310;-75
2022/01/14 08:34:08;;;;;;;3.13;2.20;;;0.00;87.10;-1.00;100096.00;;;;5115847;28;20197;-75
2022/01/14 08:36:34;;;;;;;3.23;2.97;;;0.00;87.20;-0.90;100105.00;;;;5115698;28;20348;-73
2022/01/14 08:39:01;;;;;;;2.63;2.17;;;0.00;87.40;-0.90;100101.00;;;;5097868;28;20220;-75
2022/01/14 08:41:30;;;;;;;2.60;1.60;;;0.10;87.50;-0.90;100099.00;;;;5115577;28;20218;-75
2022/01/14 08:43:59;;;;;;;2.33;2.17;;;0.10;87.60;-0.70;100091.00;;;;5115587;28;20502;-74
2022/01/14 08:46:27;;;;;;;3.43;1.77;;;0.20;87.60;-0.70;100098.00;;;;5115648;28;20202;-74
2022/01/14 08:48:56;;;;;;;1.33;1.30;;;0.20;86.90;-0.70;100058.00;;;;5115456;28;20218;-75
2022/01/14 08:51:23;;;;;;;2.50;2.40;;;0.30;86.90;-0.60;100086.00;;;;5115553;28;20198;-75
2022/01/14 08:53:49;;;;;;;3.53;3.27;;;0.30;87.10;-0.50;100092.00;;;;5115502;28;20254;-76
2022/01/14 08:56:18;;;;;;;2.70;2.37;;;0.40;86.90;-0.50;100092.00;;;;5114467;28;20190;-75
2022/01/14 08:58:45;;;;;;;3.43;3.13;;;0.50;86.70;-0.50;100085.00;;;;5115481;28;20206;-74
2022/01/14 09:01:12;;;;;;;2.37;2.20;;;0.50;87.00;-0.60;100077.00;;;;5115213;28;20304;-73
2022/01/14 09:03:38;;;;;;;2.67;2.47;;;0.50;87.10;-0.40;100081.00;;;;5115369;28;20217;-74
2022/01/14 09:06:05;;;;;;;3.23;3.00;;;0.60;87.40;-0.20;100078.00;;;;5115448;28;20270;-74
2022/01/14 09:08:31;;;;;;;3.03;2.73;;;0.70;87.50;-0.10;100078.00;;;;5115147;28;20210;-74
2022/01/14 09:10:58;;;;;;;2.07;1.87;;;;;0.00;100079.00;;;;5115178;28;20280;-73
2022/01/14 09:13:25;;;;;;;1.03;1.03;;;0.80;86.20;0.00;100078.00;;;;5115181;28;20301;-75
2022/01/14 09:15:52;;;;;;;1.70;1.60;;;1.00;86.90;0.10;100081.00;;;;5097358;28;20218;-74
2022/01/14 09:18:19;;;;;;;3.07;2.80;;;1.00;86.80;0.20;100083.00;;;;5115038;28;20286;-76
2022/01/14 09:20:47;;;;;;;3.13;1.93;;;1.10;86.70;0.30;100083.00;;;;5096947;28;20221;-76
2022/01/14 09:23:17;;;;;;;2.03;1.93;;;1.20;86.20;0.30;100080.00;;;;5115035;28;20290;-76
2022/01/14 09:25:44;;;;;;;1.43;1.40;;;1.30;86.20;0.40;100090.00;;;;5097030;28;20216;-75
2022/01/14 09:28:11;;;;;;;2.33;2.00;;;1.30;86.10;0.50;100089.00;;;;5115050;28;20287;-74
2022/01/14 09:30:37;;;;;;;1.87;1.77;;;1.40;86.00;0.50;100090.00;;;;5114863;28;20546;-74
2022/01/14 09:33:07;;;;;;;2.40;1.90;;;1.50;85.30;0.60;100073.00;;;;5114830;28;20319;-74
2022/01/14 09:35:34;;;;;;;1.60;1.50;;;1.50;85.40;0.70;100080.00;;;;5114944;28;20323;-76
2022/01/14 09:38:01;;;;;;;2.43;2.30;;;1.70;84.60;0.80;100088.00;;;;5115007;28;20298;-77
2022/01/14 09:40:28;;;;;;;1.63;1.53;;;1.70;85.20;0.90;100076.00;;;;5114844;28;20243;-76
2022/01/14 09:43:00;;;;;;;1.90;1.80;;;1.80;84.90;1.00;100085.00;;;;5114779;28;20227;-78
2022/01/14 09:45:28;;;;;;;2.47;2.23;;;1.90;84.80;1.10;100082.00;;;;5114854;28;20282;-76
2022/01/14 09:47:56;;;;;;;1.57;1.47;;;2.00;84.40;1.20;100086.00;;;;5114737;28;20205;-76
2022/01/14 09:50:25;;;;;;;3.23;2.13;;;2.10;84.50;1.30;100088.00;;;;5114672;28;20222;-76
2022/01/14 09:52:52;;;;;;;1.50;1.50;;;2.20;84.80;1.30;100091.00;;;;5114694;28;20189;-76
2022/01/14 09:55:20;;;;;;;1.17;1.17;;;2.30;83.90;1.40;100057.00;;;;5114745;28;20566;-76
2022/01/14 09:57:48;;;;;;;1.70;1.63;;;2.30;83.50;1.50;100096.00;;;;5096669;28;20293;-78
2022/01/14 10:00:16;;;;;;;1.63;1.53;;;2.30;83.40;1.50;100086.00;;;;5114491;28;20228;-76
2022/01/14 10:02:44;;;;;;;2.10;1.93;;;2.40;83.20;1.60;100092.00;;;;5114546;28;20619;-76
2022/01/14 10:05:33;;;;;;;2.37;2.23;;;2.40;83.10;1.60;100079.00;;;;5114519;28;20588;-75
2022/01/14 10:08:14;;;;;;;1.33;1.33;;;2.50;83.20;1.70;100077.00;;;;5114547;28;20651;-75
2022/01/14 10:10:46;;;;;;;3.07;1.77;;;2.50;83.40;1.80;100078.00;;;;5114386;28;20235;-77
2022/01/14 10:13:16;;;;;;;2.60;2.40;;;2.60;83.40;1.80;100075.00;;;;5114572;28;20280;-73
2022/01/14 10:15:45;;;;;;;1.93;1.80;;;2.70;83.30;1.90;100078.00;;;;5114410;28;20385;-75
2022/01/14 10:18:15;;;;;;;1.67;1.57;;;2.70;83.20;1.90;100073.00;;;;5096562;28;20703;-77
2022/01/14 10:20:46;;;;;;;1.63;1.53;;;2.80;83.00;2.00;100083.00;;;;5096483;28;20213;-75
2022/01/14 10:23:13;;;;;;;3.30;2.60;;;2.80;83.20;2.10;100078.00;;;;5114170;28;20249;-75
2022/01/14 10:25:40;;;;;;;2.50;2.30;;;3.00;83.40;2.20;100031.00;;;;5114353;28;20212;-74
2022/01/14 10:28:21;;;;;;;2.40;1.80;;;3.00;83.00;2.10;100082.00;;;;5113389;28;20205;-76
2022/01/14 10:30:49;;;;;;;1.90;1.80;;;3.10;83.00;2.30;100079.00;;;;5114315;28;20230;-76
2022/01/14 10:33:22;;;;;;;3.33;3.03;;;3.20;82.70;2.40;100085.00;;;;5113269;28;20217;-76
2022/01/14 10:35:50;;;;;;;1.43;1.33;;;3.30;82.80;2.60;100090.00;;;;5114193;28;20644;-74
2022/01/14 10:38:19;;;;;;;1.47;1.37;;;3.40;82.80;2.70;100073.00;;;;5096314;28;20213;-75
2022/01/14 10:40:49;;;;;;;1.57;1.47;;;3.50;83.20;2.90;100075.00;;;;5114039;28;20686;-77
2022/01/14 10:43:21;;;;;;;1.80;1.70;;;3.70;81.70;3.00;100060.00;;;;5114029;28;20306;-78
2022/01/14 10:45:50;;;;;;;1.70;1.60;;;3.80;81.00;3.00;100065.00;;;;5096441;28;20530;-75
2022/01/14 10:48:29;;;;;;;1.57;1.47;;;3.90;80.40;3.20;100062.00;;;;5114023;28;20304;-75
2022/01/14 10:50:58;;;;;;;0.83;0.83;;;4.00;79.90;3.20;100053.00;;;;5114053;28;20201;-73
2022/01/14 10:53:29;;;;;;;2.43;2.23;;;4.10;79.20;3.30;100065.00;;;;5113959;28;20679;-75
2022/01/14 10:56:01;;;;;;;3.27;2.10;;;4.10;79.40;3.40;100053.00;;;;5113878;28;20343;-76
2022/01/14 10:58:31;;;;;;;2.63;2.43;;;4.20;79.40;3.50;100055.00;;;;5113933;28;20216;-75
2022/01/14 11:01:00;;;;;;;2.10;2.00;;;4.30;79.10;3.60;100056.00;;;;5095745;28;20282;-75
2022/01/14 11:03:36;;;;;;;1.10;1.10;;;4.40;78.80;3.70;100049.00;;;;5113878;28;20280;-74
2022/01/14 11:06:22;;;;;;;1.40;1.17;;;4.50;78.30;3.80;100047.00;;;;5113765;28;20311;-75
2022/01/14 11:08:57;;;;;;;1.83;1.73;;;4.60;78.30;4.00;100054.00;;;;5113780;28;20282;-75
2022/01/14 11:11:24;;;;;;;1.47;1.37;;;4.70;78.30;4.00;100047.00;;;;5113996;28;20539;-76
2022/01/14 11:13:50;;;;;;;2.50;2.40;;;4.80;77.10;4.20;100004.00;;;;5095752;28;20625;-76